Time;durP1;ratioP1;P1;durP2;ratioP2;P2;SDS_P1;SDS_P2;PMS_P1;PMS_P2;Temp;Humidity;BMP_temperature;BMP_pressure;BME280_temperature;BME280_humidity;BME280_pressure;Samples;Min_cycle;Max_cycle;Signal;HPM_P1;HPM_P2
2022/03/11 00:02:25;;;;;;;3.87;1.30;;;;;;;-4.22;37.50;101944.58;1765156;78;21144;-56
2022/03/11 00:04:51;;;;;;;4.75;1.77;;;;;;;-4.24;37.27;101934.72;1784970;78;21285;-56
2022/03/11 00:07:19;;;;;;;4.35;1.55;;;;;;;-4.28;38.03;101936.85;1780320;78;21073;-56
2022/03/11 00:09:48;;;;;;;3.62;1.45;;;;;;;-4.25;37.48;101939.41;1788508;80;21041;-56
2022/03/11 00:12:14;;;;;;;6.15;1.65;;;;;;;-4.30;36.89;101937.69;1782486;78;21097;-56
2022/03/11 00:14:41;;;;;;;4.80;1.52;;;;;;;-4.31;37.62;101934.67;1782662;79;21139;-57
2022/03/11 00:17:08;;;;;;;5.30;1.95;;;;;;;-4.31;37.91;101925.67;1776479;78;20994;-56
2022/03/11 00:19:34;;;;;;;4.75;1.47;;;;;;;-4.33;37.81;101927.39;1779999;78;21557;-55
2022/03/11 00:22:02;;;;;;;4.87;1.70;;;;;;;-4.33;37.42;101922.68;1770576;78;21077;-56
2022/03/11 00:24:30;;;;;;;4.97;1.47;;;;;;;-4.35;37.62;101926.52;1775243;80;20966;-56
2022/03/11 00:26:56;;;;;;;4.65;1.45;;;;;;;-4.34;38.45;101924.80;1779647;78;21038;-57
2022/03/11 00:29:23;;;;;;;4.17;1.47;;;;;;;-4.33;38.02;101910.68;1770333;79;21396;-57
2022/03/11 00:31:50;;;;;;;5.53;2.10;;;;;;;-4.37;37.92;101921.80;1783935;79;21487;-56
2022/03/11 00:34:17;;;;;;;7.33;1.72;;;;;;;-4.41;37.48;101917.48;1771672;78;21071;-56
2022/03/11 00:36:44;;;;;;;4.15;1.42;;;;;;;-4.45;37.54;101912.30;1783348;78;21066;-56
2022/03/11 00:39:11;;;;;;;3.05;1.10;;;;;;;-4.45;37.38;101922.17;1786344;80;21544;-56
2022/03/11 00:41:38;;;;;;;5.12;1.67;;;;;;;-4.47;37.53;101913.61;1783967;79;21104;-56
2022/03/11 00:44:06;;;;;;;4.03;1.25;;;;;;;-4.50;37.74;101920.85;1784537;79;21086;-56
2022/03/11 00:46:32;;;;;;;4.62;1.47;;;;;;;-4.51;37.66;101911.41;1783923;78;21057;-56
2022/03/11 00:48:59;;;;;;;4.97;1.72;;;;;;;-4.49;38.29;101911.42;1775183;80;21472;-56
2022/03/11 00:51:25;;;;;;;3.92;1.20;;;;;;;-4.49;37.87;101912.71;1780589;79;21125;-57
2022/03/11 00:53:52;;;;;;;3.83;1.52;;;;;;;-4.52;37.68;101909.71;1778835;79;20978;-56
2022/03/11 00:56:19;;;;;;;4.25;1.62;;;;;;;-4.50;38.28;101904.59;1779995;80;21017;-57
2022/03/11 00:58:46;;;;;;;4.78;1.70;;;;;;;-4.52;37.99;101899.44;1785369;79;21120;-55
2022/03/11 01:01:12;;;;;;;4.97;1.80;;;;;;;-4.54;37.83;101904.11;1786617;78;21026;-56
2022/03/11 01:03:39;;;;;;;4.50;1.75;;;;;;;-4.56;37.76;101895.11;1786877;79;21099;-56
2022/03/11 01:06:07;;;;;;;4.47;1.37;;;;;;;-4.54;37.75;101906.28;1776858;78;21434;-56
2022/03/11 01:08:34;;;;;;;7.28;1.70;;;;;;;-4.54;37.72;101905.40;1782154;79;21085;-56
2022/03/11 01:11:00;;;;;;;5.28;2.00;;;;;;;-4.57;38.59;101895.09;1780562;79;21037;-56
2022/03/11 01:13:29;;;;;;;7.87;2.02;;;;;;;-4.55;38.13;101894.70;1787364;78;21072;-56
2022/03/11 01:15:57;;;;;;;5.30;1.80;;;;;;;-4.56;38.58;101891.69;1783066;80;21242;-56
2022/03/11 01:18:23;;;;;;;5.60;1.57;;;;;;;-4.64;37.31;101894.19;1783710;78;20990;-57
2022/03/11 01:20:51;;;;;;;5.28;1.45;;;;;;;-4.60;37.87;101896.38;1781527;80;22205;-56
2022/03/11 01:23:18;;;;;;;6.10;1.65;;;;;;;-4.62;38.06;101889.06;1778316;78;21035;-56
2022/03/11 01:25:44;;;;;;;7.17;1.50;;;;;;;-4.67;37.98;101887.34;1788622;78;21021;-56
2022/03/11 01:28:13;;;;;;;7.08;1.67;;;;;;;-4.65;38.72;101889.08;1781395;79;21772;-56
2022/03/11 01:30:41;;;;;;;4.85;1.67;;;;;;;-4.63;38.35;101895.08;1759159;80;21051;-56
2022/03/11 01:33:08;;;;;;;5.00;1.82;;;;;;;-4.66;38.65;101894.61;1784035;79;20985;-56
2022/03/11 01:35:36;;;;;;;5.20;1.70;;;;;;;-4.69;38.66;101890.33;1786564;78;21072;-56
2022/03/11 01:38:03;;;;;;;4.97;1.52;;;;;;;-4.71;38.92;101892.03;1787834;79;22209;-56
2022/03/11 01:40:29;;;;;;;4.87;1.50;;;;;;;-4.70;38.81;101891.17;1782969;80;21241;-56
2022/03/11 01:42:55;;;;;;;5.42;1.62;;;;;;;-4.70;39.47;101900.16;1754996;80;21130;-56
2022/03/11 01:45:22;;;;;;;3.60;0.93;;;;;;;-4.72;38.57;101895.88;1775982;80;21153;-56
2022/03/11 01:47:50;;;;;;;4.53;1.42;;;;;;;-4.70;38.75;101902.72;1774518;80;21184;-55
2022/03/11 01:50:17;;;;;;;7.67;1.80;;;;;;;-4.71;38.16;101901.42;1767278;79;21089;-56
2022/03/11 01:52:44;;;;;;;4.20;1.17;;;;;;;-4.72;39.26;101895.44;1769759;80;21059;-55
2022/03/11 01:55:10;;;;;;;6.12;1.52;;;;;;;-4.71;39.07;101901.42;1765685;79;21012;-56
2022/03/11 01:57:39;;;;;;;4.87;1.67;;;;;;;-4.73;38.20;101892.86;1768013;80;21066;-56
2022/03/11 02:00:07;;;;;;;7.87;1.40;;;;;;;-4.75;38.26;101899.27;1775628;80;21039;-56
2022/03/11 02:02:37;;;;;;;3.95;1.20;;;;;;;-4.79;38.08;101891.11;1757589;80;21006;-56
2022/03/11 02:05:05;;;;;;;5.55;1.80;;;;;;;-4.83;38.59;101895.77;1767335;80;21085;-56
2022/03/11 02:07:32;;;;;;;3.27;1.17;;;;;;;-4.83;37.79;101900.91;1770648;80;21023;-56
2022/03/11 02:10:01;;;;;;;4.35;1.65;;;;;;;-4.86;38.41;101895.74;1772432;79;21546;-55
2022/03/11 02:12:34;;;;;;;8.43;1.92;;;;;;;-4.86;39.08;101897.02;1777942;79;21018;-56
2022/03/11 02:15:06;;;;;;;5.28;1.62;;;;;;;-4.85;38.86;101905.18;1778049;79;21514;-56
2022/03/11 02:17:33;;;;;;;5.00;1.17;;;;;;;-4.84;38.41;101903.06;1778980;78;21214;-56
2022/03/11 02:20:00;;;;;;;4.05;1.50;;;;;;;-4.86;38.32;101902.16;1785407;80;21034;-56
2022/03/11 02:22:27;;;;;;;3.22;1.17;;;;;;;-4.85;38.81;101901.33;1777107;80;21109;-56
2022/03/11 02:24:54;;;;;;;4.60;1.42;;;;;;;-4.86;38.51;101899.59;1771888;78;21564;-57
2022/03/11 02:27:21;;;;;;;9.60;1.65;;;;;;;-4.87;39.30;101901.75;1765851;79;21055;-56
2022/03/11 02:29:48;;;;;;;3.83;1.45;;;;;;;-4.90;39.16;101900.00;1783227;80;21151;-56
2022/03/11 02:32:14;;;;;;;3.75;1.20;;;;;;;-4.89;39.14;101908.15;1781100;78;21045;-56
2022/03/11 02:34:41;;;;;;;4.83;1.30;;;;;;;-4.88;39.20;101907.72;1785188;79;21054;-56
2022/03/11 02:37:09;;;;;;;6.92;1.30;;;;;;;-4.87;39.25;101906.88;1777759;79;22436;-56
2022/03/11 02:39:36;;;;;;;4.90;1.60;;;;;;;-4.87;39.29;101910.73;1787998;79;21040;-56
2022/03/11 02:42:04;;;;;;;4.15;1.60;;;;;;;-4.87;39.28;101897.46;1792265;78;21135;-56
2022/03/11 02:47:04;;;;;;;5.00;1.70;;;;;;;-4.94;39.03;101898.67;1797760;77;22656;-56
2022/03/11 02:49:30;;;;;;;4.47;1.42;;;;;;;-5.00;39.31;101904.63;1763889;78;21500;-55
2022/03/11 02:51:57;;;;;;;4.28;1.17;;;;;;;-5.04;39.53;101902.45;1756899;80;21147;-55
2022/03/11 02:54:24;;;;;;;7.62;2.05;;;;;;;-5.05;38.49;101896.88;1720121;81;21125;-56
2022/03/11 02:56:51;;;;;;;5.37;1.67;;;;;;;-5.07;39.17;101896.00;1717823;82;20960;-56
2022/03/11 02:59:18;;;;;;;3.62;1.35;;;;;;;-5.10;39.28;101901.11;1718737;81;21122;-57
2022/03/11 03:01:44;;;;;;;3.37;1.07;;;;;;;-5.10;39.91;101904.11;1713758;82;21353;-56
2022/03/11 03:04:11;;;;;;;5.10;1.80;;;;;;;-5.11;40.03;101913.52;1730204;81;21115;-55
2022/03/11 03:06:38;;;;;;;4.37;1.45;;;;;;;-5.11;40.48;101913.52;1724992;81;21053;-55
2022/03/11 03:09:06;;;;;;;5.70;1.75;;;;;;;-5.11;40.00;101914.81;1731967;81;20998;-55
2022/03/11 03:11:35;;;;;;;3.92;1.62;;;;;;;-5.14;39.66;101901.94;1747510;80;21042;-56
2022/03/11 03:14:02;;;;;;;7.45;1.65;;;;;;;-5.14;39.98;101911.36;1713288;83;21089;-56
2022/03/11 03:16:29;;;;;;;6.60;1.70;;;;;;;-5.24;39.35;101889.88;1719231;83;21146;-56
2022/03/11 03:18:56;;;;;;;5.67;1.62;;;;;;;-5.22;39.37;101904.42;1744430;80;21116;-56
2022/03/11 03:21:23;;;;;;;6.03;2.00;;;;;;;-5.26;39.36;101887.72;1747827;80;21082;-56
2022/03/11 03:23:52;;;;;;;4.55;1.82;;;;;;;-5.30;39.43;101894.94;1718392;81;21050;-56
2022/03/11 03:26:19;;;;;;;6.33;2.10;;;;;;;-5.38;39.45;101897.84;1708168;82;21122;-56
2022/03/11 03:28:46;;;;;;;4.95;2.02;;;;;;;-5.39;39.81;101905.13;1732374;81;22826;-56
2022/03/11 03:31:17;;;;;;;5.70;2.12;;;;;;;-5.45;39.82;101902.90;1719496;82;21118;-56
2022/03/11 03:33:45;;;;;;;4.55;1.65;;;;;;;-5.51;39.62;101902.86;1714671;81;21185;-56
2022/03/11 03:36:11;;;;;;;5.72;1.80;;;;;;;-5.53;40.10;101903.67;1714107;82;21086;-56
2022/03/11 03:38:38;;;;;;;4.60;1.52;;;;;;;-5.51;40.31;101905.85;1734434;81;21102;-56
2022/03/11 03:41:05;;;;;;;7.42;2.30;;;;;;;-5.53;40.07;101898.53;1725911;81;21150;-56
2022/03/11 03:43:34;;;;;;;4.97;1.80;;;;;;;-5.50;40.19;101899.86;1710177;81;21070;-56
2022/03/11 03:46:00;;;;;;;4.35;1.50;;;;;;;-5.54;39.88;101895.13;1717930;82;21107;-56
2022/03/11 03:48:27;;;;;;;4.80;2.12;;;;;;;-5.53;40.03;101902.38;1754378;79;21707;-56
2022/03/11 03:50:55;;;;;;;5.83;1.87;;;;;;;-5.57;40.21;101899.36;1767429;80;21511;-56
2022/03/11 03:53:21;;;;;;;8.28;2.35;;;;;;;-5.63;40.34;101901.41;1760567;79;21763;-56
2022/03/11 03:55:48;;;;;;;5.55;1.85;;;;;;;-5.63;40.71;101906.15;1770792;80;21058;-56
2022/03/11 03:58:15;;;;;;;4.80;1.82;;;;;;;-5.68;40.50;101899.22;1759913;79;21508;-56
2022/03/11 04:00:41;;;;;;;5.70;1.75;;;;;;;-5.66;40.44;101900.98;1751403;80;21066;-56
2022/03/11 04:03:08;;;;;;;5.87;2.33;;;;;;;-5.69;40.56;101902.66;1759718;79;21148;-55
2022/03/11 04:05:36;;;;;;;7.25;2.15;;;;;;;-5.75;40.44;101903.42;1757795;80;22226;-56
2022/03/11 04:08:02;;;;;;;5.42;2.00;;;;;;;-5.71;40.72;101909.05;1764448;80;21007;-56
2022/03/11 04:10:29;;;;;;;5.03;2.12;;;;;;;-5.78;40.71;101903.41;1761281;80;21082;-56
2022/03/11 04:12:57;;;;;;;5.08;2.17;;;;;;;-5.82;40.98;101905.05;1767277;80;21061;-56
2022/03/11 04:15:23;;;;;;;6.47;2.15;;;;;;;-5.83;41.09;101898.66;1765539;79;21550;-56
2022/03/11 04:17:50;;;;;;;5.10;1.70;;;;;;;-5.84;41.29;101907.17;1765072;80;21229;-55
2022/03/11 04:20:17;;;;;;;5.78;2.17;;;;;;;-5.83;40.94;101908.91;1747550;80;21051;-55
2022/03/11 04:22:45;;;;;;;5.62;2.00;;;;;;;-5.92;41.11;101906.21;1758836;79;21106;-57
2022/03/11 04:25:13;;;;;;;6.58;2.00;;;;;;;-5.89;41.19;101914.80;1760099;80;21606;-56
2022/03/11 04:27:41;;;;;;;6.83;2.27;;;;;;;-5.98;41.30;101905.77;1770222;79;21115;-56
2022/03/11 04:30:09;;;;;;;6.22;1.90;;;;;;;-5.92;41.21;101919.88;1759002;80;21096;-56
2022/03/11 04:32:36;;;;;;;6.40;2.25;;;;;;;-5.91;41.50;101923.33;1763934;80;21106;-56
2022/03/11 04:35:03;;;;;;;6.80;2.17;;;;;;;-5.90;41.31;101928.87;1771670;80;21137;-56
2022/03/11 04:37:30;;;;;;;5.35;2.05;;;;;;;-5.92;41.42;101926.72;1764641;80;21507;-56
2022/03/11 04:39:57;;;;;;;5.92;1.90;;;;;;;-5.94;41.75;101931.83;1767915;79;21108;-56
2022/03/11 04:42:25;;;;;;;10.25;2.35;;;;;;;-5.93;41.73;101933.95;1762636;80;21221;-56
2022/03/11 04:44:53;;;;;;;4.50;1.57;;;;;;;-5.97;41.43;101936.94;1752371;80;21090;-56
2022/03/11 04:47:20;;;;;;;5.37;2.00;;;;;;;-5.97;41.99;101933.09;1762164;79;21004;-55
2022/03/11 04:49:48;;;;;;;6.33;2.52;;;;;;;-5.97;41.76;101938.22;1760530;80;21106;-57
2022/03/11 04:52:15;;;;;;;7.42;2.47;;;;;;;-6.02;41.93;101939.86;1758718;79;21035;-56
2022/03/11 04:54:41;;;;;;;7.20;2.08;;;;;;;-5.99;41.87;101936.06;1766045;79;21988;-56
2022/03/11 04:57:08;;;;;;;5.85;2.45;;;;;;;-5.99;41.67;101931.79;1762280;79;21110;-56
2022/03/11 04:59:36;;;;;;;5.97;2.30;;;;;;;-5.99;41.84;101939.48;1755851;80;21664;-56
2022/03/11 05:02:04;;;;;;;6.83;2.25;;;;;;;-5.97;41.79;101936.94;1760451;80;21150;-56
2022/03/11 05:04:31;;;;;;;6.17;2.55;;;;;;;-6.05;42.00;101946.22;1758922;79;21136;-56
2022/03/11 05:06:58;;;;;;;5.60;2.27;;;;;;;-6.01;42.33;101945.44;1765653;80;21550;-56
2022/03/11 05:09:24;;;;;;;5.50;2.33;;;;;;;-6.01;42.07;101941.59;1769454;79;21058;-56
2022/03/11 05:11:50;;;;;;;10.25;2.52;;;;;;;-5.99;42.31;101952.30;1766764;80;21066;-56
2022/03/11 05:14:17;;;;;;;6.30;2.22;;;;;;;-5.98;42.22;101950.61;1764394;79;21604;-56
2022/03/11 05:16:43;;;;;;;6.72;2.10;;;;;;;-5.99;42.14;101942.04;1770224;80;21059;-57
2022/03/11 05:19:10;;;;;;;7.62;2.45;;;;;;;-5.97;42.19;101949.75;1755283;79;21739;-56
2022/03/11 05:21:38;;;;;;;5.75;2.42;;;;;;;-5.97;42.09;101943.34;1753679;80;21252;-56
2022/03/11 05:24:06;;;;;;;8.58;2.83;;;;;;;-5.95;41.97;101953.19;1765010;79;21082;-56
2022/03/11 05:26:33;;;;;;;7.25;2.30;;;;;;;-5.95;42.39;101952.31;1769602;80;21695;-55
2022/03/11 05:28:59;;;;;;;6.53;2.87;;;;;;;-5.92;42.11;101953.20;1762751;80;21042;-55
2022/03/11 05:31:27;;;;;;;5.03;2.02;;;;;;;-5.91;42.40;101954.94;1750395;79;21237;-56
2022/03/11 05:33:54;;;;;;;8.28;2.60;;;;;;;-5.88;42.89;101952.42;1768076;79;21051;-56
2022/03/11 05:36:22;;;;;;;4.65;2.05;;;;;;;-5.85;42.75;101959.27;1762155;80;21110;-56
2022/03/11 05:38:50;;;;;;;7.08;3.10;;;;;;;-5.84;42.48;101955.45;1764052;79;21058;-56
2022/03/11 05:41:18;;;;;;;6.40;2.55;;;;;;;-5.79;42.50;101952.95;1765551;80;21063;-56
2022/03/11 05:43:45;;;;;;;6.62;1.90;;;;;;;-5.74;42.79;101960.72;1764436;80;21223;-57
2022/03/11 05:46:11;;;;;;;6.87;2.42;;;;;;;-5.65;42.08;101962.09;1762141;80;21070;-56
2022/03/11 05:48:38;;;;;;;6.35;2.25;;;;;;;-5.66;41.67;101950.13;1755065;80;21105;-56
2022/03/11 05:51:05;;;;;;;3.55;1.50;;;;;;;-5.57;42.21;101966.05;1709662;82;21161;-56
2022/03/11 05:53:32;;;;;;;4.70;1.57;;;;;;;-5.52;42.36;101954.13;1754763;81;21468;-56
2022/03/11 05:55:58;;;;;;;7.53;1.92;;;;;;;-5.44;41.46;101963.64;1752176;81;21195;-57
2022/03/11 05:58:25;;;;;;;8.15;1.70;;;;;;;-5.38;41.36;101954.28;1754952;79;21045;-57
2022/03/11 06:00:52;;;;;;;4.97;1.42;;;;;;;-5.31;41.15;101967.61;1764057;81;21391;-56
2022/03/11 06:03:20;;;;;;;3.87;1.50;;;;;;;-5.35;40.23;101950.05;1761596;79;21101;-57
2022/03/11 06:05:47;;;;;;;4.53;1.50;;;;;;;-5.34;41.28;101963.32;1761337;81;21581;-56
2022/03/11 06:08:14;;;;;;;4.92;1.80;;;;;;;-5.25;41.12;101963.84;1749897;81;21128;-57
2022/03/11 06:10:41;;;;;;;4.60;1.82;;;;;;;-5.20;40.72;101942.93;1757649;81;21096;-57
2022/03/11 06:13:09;;;;;;;5.55;1.55;;;;;;;-5.14;41.05;101966.11;1760789;80;21095;-56
2022/03/11 06:15:36;;;;;;;5.17;1.55;;;;;;;-5.12;41.02;101965.69;1758630;81;21626;-56
2022/03/11 06:18:03;;;;;;;5.58;1.55;;;;;;;-5.02;41.08;101961.52;1760594;79;21043;-56
2022/03/11 06:20:32;;;;;;;6.55;2.05;;;;;;;-4.97;40.24;101953.86;1756084;81;21220;-55
2022/03/11 06:22:59;;;;;;;7.30;1.72;;;;;;;-4.93;40.17;101953.03;1761072;80;21078;-56
2022/03/11 06:25:26;;;;;;;4.50;1.70;;;;;;;-4.89;40.18;101961.22;1758246;81;21047;-56
2022/03/11 06:27:52;;;;;;;4.10;1.47;;;;;;;-4.89;39.90;101948.38;1748392;81;21107;-55
2022/03/11 06:30:19;;;;;;;4.25;1.67;;;;;;;-4.88;40.39;101958.64;1760585;81;21117;-56
2022/03/11 06:32:48;;;;;;;4.90;1.52;;;;;;;-4.87;39.90;101939.83;1760939;80;22441;-57
2022/03/11 06:35:16;;;;;;;4.87;1.30;;;;;;;-4.81;40.94;101939.45;1760848;81;21027;-56
2022/03/11 06:37:50;;;;;;;4.92;1.55;;;;;;;-4.78;40.55;101949.31;1759644;80;21031;-55
2022/03/11 06:40:16;;;;;;;2.58;1.05;;;;;;;-4.77;39.19;101935.64;1759898;81;21013;-57
2022/03/11 06:42:45;;;;;;;4.42;1.77;;;;;;;-4.76;38.51;101940.34;1758941;79;21094;-56
2022/03/11 06:45:13;;;;;;;4.72;1.40;;;;;;;-4.76;38.86;101943.76;1757940;81;21144;-57
2022/03/11 06:47:40;;;;;;;5.45;1.40;;;;;;;-4.71;38.98;101942.12;1749200;80;21083;-56
2022/03/11 06:50:07;;;;;;;3.95;1.50;;;;;;;-4.68;38.81;101945.97;1753595;81;21051;-56
2022/03/11 06:52:33;;;;;;;5.12;1.72;;;;;;;-4.59;39.86;101943.92;1758566;81;21004;-56
2022/03/11 06:55:00;;;;;;;5.78;1.60;;;;;;;-4.55;38.77;101953.36;1748352;80;21551;-56
2022/03/11 06:57:26;;;;;;;2.80;1.00;;;;;;;-4.46;39.01;101956.85;1762484;80;21172;-57
2022/03/11 06:59:53;;;;;;;2.83;0.93;;;;;;;-4.43;38.33;101944.88;1752667;80;21043;-56
2022/03/11 07:02:19;;;;;;;4.22;1.00;;;;;;;-4.38;37.84;101949.63;1758347;81;21715;-56
2022/03/11 07:04:46;;;;;;;5.95;1.40;;;;;;;-4.34;37.82;101941.51;1754708;81;21098;-55
2022/03/11 07:07:12;;;;;;;3.92;1.15;;;;;;;-4.32;38.23;101941.09;1765109;81;21035;-55
2022/03/11 07:09:40;;;;;;;6.30;1.30;;;;;;;-4.24;38.81;101948.42;1760027;80;21203;-56
2022/03/11 07:12:07;;;;;;;5.95;1.70;;;;;;;-4.20;38.63;101946.33;1759993;81;21086;-56
2022/03/11 07:14:36;;;;;;;4.15;1.45;;;;;;;-4.17;37.42;101948.04;1745587;80;21657;-56
2022/03/11 07:17:05;;;;;;;6.65;1.37;;;;;;;-4.17;36.95;101948.04;1758087;81;21042;-56
2022/03/11 07:19:33;;;;;;;4.10;1.20;;;;;;;-4.13;37.67;101946.79;1759365;80;21040;-56
2022/03/11 07:22:01;;;;;;;3.65;1.27;;;;;;;-4.13;37.05;101924.09;1761385;81;21162;-56
2022/03/11 07:24:28;;;;;;;8.18;1.30;;;;;;;-4.08;37.25;101935.66;1758139;80;21489;-56
2022/03/11 07:26:55;;;;;;;5.10;1.35;;;;;;;-4.01;37.62;101933.58;1761425;81;21121;-55
2022/03/11 07:29:21;;;;;;;10.05;1.52;;;;;;;-3.92;36.35;101946.06;1757801;80;21110;-56
2022/03/11 07:31:48;;;;;;;5.03;1.07;;;;;;;-3.84;37.34;101946.52;1738790;79;21542;-55
2022/03/11 07:34:16;;;;;;;4.97;1.10;;;;;;;-3.73;37.38;101946.14;1763891;81;21491;-55
2022/03/11 07:36:43;;;;;;;4.55;1.67;;;;;;;-3.63;35.86;101941.47;1764183;81;21055;-55
2022/03/11 07:39:10;;;;;;;4.80;1.45;;;;;;;-3.58;35.31;101942.75;1763014;80;21090;-55
2022/03/11 07:41:37;;;;;;;6.28;1.82;;;;;;;-3.51;35.88;101939.36;1765976;81;21542;-56
2022/03/11 07:44:05;;;;;;;2.65;1.00;;;;;;;-3.42;34.95;101930.80;1745222;79;21067;-56
2022/03/11 07:46:35;;;;;;;4.70;1.42;;;;;;;-3.36;35.96;101933.41;1747931;80;21138;-57
2022/03/11 07:49:02;;;;;;;6.95;1.77;;;;;;;-3.27;36.44;101926.97;1760273;80;21558;-56
2022/03/11 07:51:33;;;;;;;4.95;1.15;;;;;;;-3.27;34.63;101919.25;1771478;80;21082;-55
2022/03/11 07:53:58;;;;;;;4.60;1.20;;;;;;;-3.24;35.75;101915.84;1757954;79;21063;-56
2022/03/11 07:56:24;;;;;;;4.12;1.22;;;;;;;-3.25;34.28;101907.67;1770663;80;21055;-55
2022/03/11 07:58:54;;;;;;;3.72;1.25;;;;;;;-3.21;35.34;101917.98;1759306;79;21811;-56
2022/03/11 08:01:20;;;;;;;6.80;1.22;;;;;;;-3.22;35.51;101913.68;1753393;80;21034;-56
2022/03/11 08:03:47;;;;;;;5.10;1.32;;;;;;;-3.15;34.48;101920.98;1759835;79;21570;-56
2022/03/11 08:06:14;;;;;;;3.17;1.05;;;;;;;-3.08;33.70;101921.86;1759186;79;21040;-55
2022/03/11 08:08:41;;;;;;;4.90;1.60;;;;;;;-3.07;34.91;101923.58;1748597;79;21062;-56
2022/03/11 08:11:09;;;;;;;6.42;1.35;;;;;;;-2.98;34.56;101928.73;1759285;80;21139;-55
2022/03/11 08:13:35;;;;;;;2.92;0.98;;;;;;;-2.90;33.77;101921.02;1762176;79;21012;-55
2022/03/11 08:16:02;;;;;;;5.00;1.05;;;;;;;-2.87;33.54;101918.45;1766794;80;21027;-56
2022/03/11 08:18:31;;;;;;;3.00;0.80;;;;;;;-2.84;33.66;101923.17;1770782;80;21031;-56
2022/03/11 08:20:59;;;;;;;4.47;0.95;;;;;;;-2.83;32.56;101917.58;1755543;80;21146;-55
2022/03/11 08:23:25;;;;;;;8.05;1.30;;;;;;;-2.80;33.36;101922.73;1768656;80;21204;-56
2022/03/11 08:25:51;;;;;;;3.55;1.10;;;;;;;-2.72;33.26;101919.73;1770261;80;21503;-56
2022/03/11 08:28:21;;;;;;;4.08;1.37;;;;;;;-2.66;32.42;101909.41;1770052;80;21481;-56
2022/03/11 08:30:47;;;;;;;4.10;0.98;;;;;;;-2.59;32.32;101923.14;1764208;80;21090;-55
2022/03/11 08:33:20;;;;;;;3.02;1.07;;;;;;;-2.58;32.22;101913.27;1754818;80;21058;-56
2022/03/11 08:35:44;;;;;;;3.67;1.17;;;;;;;-2.50;32.06;101919.28;1756441;79;21275;-56
2022/03/11 08:38:11;;;;;;;4.60;1.37;;;;;;;-2.46;33.12;101905.95;1766782;80;21035;-56
2022/03/11 08:40:38;;;;;;;2.35;0.70;;;;;;;-2.44;32.53;101911.96;1757585;79;21542;-55
2022/03/11 08:43:04;;;;;;;4.10;1.35;;;;;;;-2.43;31.72;101910.67;1771667;80;21589;-56
2022/03/11 08:45:32;;;;;;;8.58;1.62;;;;;;;-2.41;32.73;101911.11;1770556;80;21059;-55
2022/03/11 08:47:59;;;;;;;4.50;0.90;;;;;;;-2.34;32.78;101923.97;1767409;80;21225;-56
2022/03/11 08:50:26;;;;;;;4.80;1.20;;;;;;;-2.24;32.05;101918.37;1764231;80;21106;-57
2022/03/11 08:52:55;;;;;;;3.90;0.93;;;;;;;-2.15;31.44;101933.84;1760435;81;21122;-56
2022/03/11 08:55:22;;;;;;;5.75;1.40;;;;;;;-2.06;32.26;101928.64;1751451;80;21098;-55
2022/03/11 08:57:49;;;;;;;6.62;1.17;;;;;;;-1.95;31.30;101926.45;1755134;81;22260;-55
2022/03/11 09:00:17;;;;;;;4.10;1.25;;;;;;;-1.85;31.54;101936.32;1763147;80;21180;-55
2022/03/11 09:02:44;;;;;;;4.65;1.25;;;;;;;-1.80;31.15;101923.84;1758517;81;21091;-55
2022/03/11 09:05:11;;;;;;;3.25;1.22;;;;;;;-1.75;31.66;101932.42;1755723;81;21479;-57
2022/03/11 09:07:38;;;;;;;4.30;1.37;;;;;;;-1.65;30.86;101928.50;1755346;81;21069;-55
2022/03/11 09:10:09;;;;;;;4.25;1.37;;;;;;;-1.53;32.06;101924.56;1752820;80;21086;-55
2022/03/11 09:12:37;;;;;;;4.20;1.05;;;;;;;-1.37;32.18;101921.48;1746477;81;21075;-54
2022/03/11 09:15:05;;;;;;;5.65;1.32;;;;;;;-1.22;31.75;101929.57;1757330;79;21004;-55
2022/03/11 09:17:35;;;;;;;4.53;1.27;;;;;;;-1.15;30.08;101930.80;1750215;81;21054;-56
2022/03/11 09:20:06;;;;;;;3.77;1.02;;;;;;;-1.13;30.19;101921.75;1752706;79;21130;-55
2022/03/11 09:22:34;;;;;;;4.22;1.20;;;;;;;-1.15;30.53;101930.80;1750025;81;21094;-54
2022/03/11 09:25:03;;;;;;;4.72;1.45;;;;;;;-1.13;30.95;101923.03;1758701;79;21137;-55
2022/03/11 09:27:30;;;;;;;3.75;0.98;;;;;;;-1.09;31.49;101931.20;1759449;81;21071;-54
2022/03/11 09:29:57;;;;;;;6.33;1.00;;;;;;;-1.02;31.66;101930.73;1757480;80;21010;-54
2022/03/11 09:32:25;;;;;;;10.25;0.95;;;;;;;-0.98;31.31;101926.80;1755727;80;20992;-55
2022/03/11 09:34:53;;;;;;;3.58;1.00;;;;;;;-0.97;31.00;101924.66;1760161;79;21185;-54
2022/03/11 09:37:20;;;;;;;4.47;1.20;;;;;;;-0.96;29.84;101928.97;1762187;81;21122;-54
2022/03/11 09:39:46;;;;;;;4.65;1.05;;;;;;;-0.96;29.84;101928.97;1758961;79;21055;-55
2022/03/11 09:42:12;;;;;;;5.05;1.20;;;;;;;-0.89;31.17;101922.44;1738640;81;21074;-54
2022/03/11 09:44:40;;;;;;;8.73;1.55;;;;;;;-0.84;31.55;101931.01;1754864;80;21083;-56
2022/03/11 09:47:09;;;;;;;4.58;1.22;;;;;;;-0.73;30.61;101930.50;1738518;80;21062;-54
2022/03/11 09:49:36;;;;;;;4.28;1.10;;;;;;;-0.64;30.27;101925.68;1770344;80;21142;-54
2022/03/11 09:52:07;;;;;;;3.95;0.98;;;;;;;-0.65;30.81;101921.40;1771000;80;21553;-55
2022/03/11 09:54:35;;;;;;;4.15;0.72;;;;;;;-0.76;30.24;101930.52;1765219;79;21054;-55
2022/03/11 09:57:03;;;;;;;5.50;1.25;;;;;;;-0.76;30.24;101930.52;1764751;80;21086;-54
2022/03/11 09:59:29;;;;;;;3.67;1.05;;;;;;;-0.76;30.60;101931.81;1768690;79;21487;-54
2022/03/11 10:01:57;;;;;;;5.15;0.98;;;;;;;-0.71;30.58;101932.63;1754942;79;21174;-53
2022/03/11 10:04:24;;;;;;;3.27;0.90;;;;;;;-0.64;29.93;101920.51;1762450;79;21047;-55
2022/03/11 10:06:55;;;;;;;2.58;0.85;;;;;;;-0.62;29.94;101925.25;1761038;80;21008;-55
2022/03/11 10:09:24;;;;;;;3.25;1.07;;;;;;;-0.62;30.25;101936.45;1761522;80;21114;-55
2022/03/11 10:11:58;;;;;;;4.85;1.10;;;;;;;-0.55;30.45;101934.66;1756700;80;21565;-53
2022/03/11 10:14:32;;;;;;;6.45;1.30;;;;;;;-0.46;30.35;101928.55;1742347;80;21206;-53
2022/03/11 10:17:03;;;;;;;5.55;1.30;;;;;;;-0.41;29.92;101917.72;1754146;79;21109;-54
2022/03/11 10:19:30;;;;;;;3.02;1.00;;;;;;;-0.35;28.92;101884.05;1758775;80;21118;-54
2022/03/11 10:21:58;;;;;;;5.15;1.47;;;;;;;-0.35;29.67;101906.44;1754838;80;21058;-55
2022/03/11 10:24:26;;;;;;;3.80;1.20;;;;;;;-0.34;29.68;101914.19;1759935;79;21067;-54
2022/03/11 10:26:58;;;;;;;3.45;1.25;;;;;;;-0.28;30.03;101908.96;1722457;81;21119;-55
2022/03/11 10:29:27;;;;;;;3.67;1.05;;;;;;;-0.08;30.96;101915.66;1759492;80;21719;-54
2022/03/11 10:31:58;;;;;;;3.98;1.00;;;;;;;-0.08;30.96;101915.66;1767452;80;21107;-54
2022/03/11 10:34:32;;;;;;;3.58;1.30;;;;;;;0.02;29.92;101921.16;1766030;80;21470;-54
2022/03/11 10:37:07;;;;;;;4.08;0.88;;;;;;;0.10;30.04;101915.45;1756259;80;21079;-54
2022/03/11 10:39:40;;;;;;;4.10;1.10;;;;;;;0.15;29.87;101901.14;1755896;80;21220;-55
2022/03/11 10:42:25;;;;;;;6.22;1.05;;;;;;;0.22;29.45;101908.39;1756519;80;21034;-55
2022/03/11 10:45:01;;;;;;;9.73;1.87;;;;;;;0.28;29.85;101908.33;1758300;79;21102;-54
2022/03/11 10:47:34;;;;;;;4.60;1.10;;;;;;;0.32;29.74;101899.62;1762386;79;20972;-54
2022/03/11 10:50:07;;;;;;;3.52;1.05;;;;;;;0.40;30.18;101908.60;1757104;80;21039;-54
2022/03/11 10:52:42;;;;;;;3.65;1.35;;;;;;;0.41;29.92;101905.15;1753318;79;21124;-54
2022/03/11 10:55:23;;;;;;;6.10;1.07;;;;;;;0.35;28.44;101903.06;1757108;79;21054;-54
2022/03/11 10:57:55;;;;;;;3.55;1.02;;;;;;;0.24;28.99;101902.78;1751758;80;21553;-54
2022/03/11 11:00:33;;;;;;;3.80;1.25;;;;;;;0.14;28.59;101913.69;1765635;79;21086;-54
2022/03/11 11:03:02;;;;;;;4.67;1.50;;;;;;;0.09;28.94;101909.84;1763267;80;21581;-52
2022/03/11 11:05:29;;;;;;;4.10;1.30;;;;;;;0.05;29.80;101893.95;1756976;80;21169;-53
2022/03/11 11:07:57;;;;;;;2.60;1.00;;;;;;;0.04;29.44;101899.14;1765372;80;21084;-54
2022/03/11 11:10:25;;;;;;;4.70;1.30;;;;;;;0.14;29.04;101902.88;1764591;79;21034;-53
2022/03/11 11:12:51;;;;;;;6.10;1.30;;;;;;;0.29;29.20;101895.81;1765752;80;21055;-55
2022/03/11 11:15:21;;;;;;;7.08;1.20;;;;;;;0.42;29.12;101906.42;1761785;80;21106;-53
2022/03/11 11:17:50;;;;;;;3.80;1.30;;;;;;;0.60;28.74;101913.52;1753760;80;21321;-53
2022/03/11 11:20:53;;;;;;;3.20;0.98;;;;;;;0.60;28.74;101913.52;1760878;79;20984;-53
2022/03/11 11:23:21;;;;;;;6.10;1.40;;;;;;;0.69;28.52;101892.23;1766266;79;21090;-53
2022/03/11 11:25:50;;;;;;;3.58;1.05;;;;;;;0.75;28.15;101896.45;1763607;79;21126;-53
2022/03/11 11:28:19;;;;;;;5.15;1.25;;;;;;;0.81;28.52;101900.25;1767653;80;21020;-53
2022/03/11 11:30:47;;;;;;;2.92;1.20;;;;;;;1.02;28.61;101900.34;1759108;79;21845;-52
2022/03/11 11:33:15;;;;;;;4.70;1.32;;;;;;;1.02;28.61;101900.34;1741143;79;21039;-53